sensor_id;sensor_type;location;lat;lon;timestamp;P1;durP1;ratioP1;P2;durP2;ratioP2
10469;SDS011;5282;47.052;15.458;2023-08-06T00:00:04;0.80;;;0.80;;
10469;SDS011;5282;47.052;15.458;2023-08-06T00:02:33;0.53;;;0.53;;
10469;SDS011;5282;47.052;15.458;2023-08-06T00:05:00;0.80;;;0.80;;
10469;SDS011;5282;47.052;15.458;2023-08-06T00:07:27;0.70;;;0.70;;
10469;SDS011;5282;47.052;15.458;2023-08-06T00:09:54;0.80;;;0.80;;
10469;SDS011;5282;47.052;15.458;2023-08-06T00:12:21;0.80;;;0.80;;
10469;SDS011;5282;47.052;15.458;2023-08-06T00:14:49;0.80;;;0.80;;
10469;SDS011;5282;47.052;15.458;2023-08-06T00:17:16;0.80;;;0.80;;
10469;SDS011;5282;47.052;15.458;2023-08-06T00:19:45;1.03;;;1.03;;
10469;SDS011;5282;47.052;15.458;2023-08-06T00:22:12;2.47;;;1.10;;
10469;SDS011;5282;47.052;15.458;2023-08-06T00:24:38;2.20;;;1.00;;
10469;SDS011;5282;47.052;15.458;2023-08-06T00:27:05;0.80;;;0.80;;
10469;SDS011;5282;47.052;15.458;2023-08-06T00:29:32;0.90;;;0.90;;
10469;SDS011;5282;47.052;15.458;2023-08-06T00:31:59;0.90;;;0.90;;
10469;SDS011;5282;47.052;15.458;2023-08-06T00:34:26;0.80;;;0.80;;
10469;SDS011;5282;47.052;15.458;2023-08-06T00:36:56;0.90;;;0.90;;
10469;SDS011;5282;47.052;15.458;2023-08-06T00:39:23;1.07;;;1.07;;
10469;SDS011;5282;47.052;15.458;2023-08-06T00:41:50;1.30;;;1.30;;
10469;SDS011;5282;47.052;15.458;2023-08-06T00:44:17;1.47;;;1.47;;
10469;SDS011;5282;47.052;15.458;2023-08-06T00:46:44;1.87;;;1.37;;
10469;SDS011;5282;47.052;15.458;2023-08-06T00:49:10;1.10;;;1.10;;
10469;SDS011;5282;47.052;15.458;2023-08-06T00:51:37;1.30;;;1.20;;
10469;SDS011;5282;47.052;15.458;2023-08-06T00:54:06;1.70;;;1.60;;
10469;SDS011;5282;47.052;15.458;2023-08-06T00:56:33;1.10;;;1.10;;
10469;SDS011;5282;47.052;15.458;2023-08-06T00:59:01;1.20;;;1.20;;
10469;SDS011;5282;47.052;15.458;2023-08-06T01:01:29;2.00;;;1.50;;
10469;SDS011;5282;47.052;15.458;2023-08-06T01:03:57;1.53;;;1.33;;
10469;SDS011;5282;47.052;15.458;2023-08-06T01:06:52;1.40;;;1.30;;
10469;SDS011;5282;47.052;15.458;2023-08-06T01:09:37;1.20;;;1.20;;
10469;SDS011;5282;47.052;15.458;2023-08-06T01:12:16;1.10;;;1.10;;
10469;SDS011;5282;47.052;15.458;2023-08-06T01:14:51;1.00;;;1.00;;
10469;SDS011;5282;47.052;15.458;2023-08-06T01:17:24;1.40;;;1.40;;
10469;SDS011;5282;47.052;15.458;2023-08-06T01:19:52;1.07;;;1.07;;
10469;SDS011;5282;47.052;15.458;2023-08-06T01:22:21;2.10;;;1.40;;
10469;SDS011;5282;47.052;15.458;2023-08-06T01:24:48;1.30;;;1.30;;
10469;SDS011;5282;47.052;15.458;2023-08-06T01:27:19;1.20;;;1.20;;
10469;SDS011;5282;47.052;15.458;2023-08-06T01:29:53;1.20;;;1.20;;
10469;SDS011;5282;47.052;15.458;2023-08-06T01:32:29;1.20;;;1.20;;
10469;SDS011;5282;47.052;15.458;2023-08-06T01:35:00;1.60;;;1.50;;
10469;SDS011;5282;47.052;15.458;2023-08-06T01:37:31;1.57;;;1.47;;
10469;SDS011;5282;47.052;15.458;2023-08-06T01:39:59;1.43;;;1.33;;
10469;SDS011;5282;47.052;15.458;2023-08-06T01:42:26;1.50;;;1.50;;
10469;SDS011;5282;47.052;15.458;2023-08-06T01:44:52;1.33;;;1.33;;
10469;SDS011;5282;47.052;15.458;2023-08-06T01:47:19;1.50;;;1.40;;
10469;SDS011;5282;47.052;15.458;2023-08-06T01:49:46;1.50;;;1.50;;
10469;SDS011;5282;47.052;15.458;2023-08-06T01:52:13;1.50;;;1.50;;
10469;SDS011;5282;47.052;15.458;2023-08-06T01:54:41;1.40;;;1.40;;
10469;SDS011;5282;47.052;15.458;2023-08-06T01:57:08;1.63;;;1.57;;
10469;SDS011;5282;47.052;15.458;2023-08-06T01:59:35;1.43;;;1.37;;
10469;SDS011;5282;47.052;15.458;2023-08-06T02:02:02;1.53;;;1.43;;
10469;SDS011;5282;47.052;15.458;2023-08-06T02:04:29;1.50;;;1.50;;
10469;SDS011;5282;47.052;15.458;2023-08-06T02:06:56;1.50;;;1.50;;
10469;SDS011;5282;47.052;15.458;2023-08-06T02:09:23;1.60;;;1.50;;
10469;SDS011;5282;47.052;15.458;2023-08-06T02:11:51;1.63;;;1.50;;
10469;SDS011;5282;47.052;15.458;2023-08-06T02:14:18;2.00;;;1.23;;
10469;SDS011;5282;47.052;15.458;2023-08-06T02:16:46;1.40;;;1.40;;
10469;SDS011;5282;47.052;15.458;2023-08-06T02:19:12;1.30;;;1.30;;
10469;SDS011;5282;47.052;15.458;2023-08-06T02:21:39;1.30;;;1.30;;
10469;SDS011;5282;47.052;15.458;2023-08-06T02:24:06;3.10;;;1.73;;
10469;SDS011;5282;47.052;15.458;2023-08-06T02:26:33;1.40;;;1.40;;
10469;SDS011;5282;47.052;15.458;2023-08-06T02:29:02;1.80;;;1.70;;
10469;SDS011;5282;47.052;15.458;2023-08-06T02:31:31;1.30;;;1.20;;
10469;SDS011;5282;47.052;15.458;2023-08-06T02:33:58;1.47;;;1.47;;
10469;SDS011;5282;47.052;15.458;2023-08-06T02:36:25;1.43;;;1.43;;
10469;SDS011;5282;47.052;15.458;2023-08-06T02:38:54;1.40;;;1.40;;
10469;SDS011;5282;47.052;15.458;2023-08-06T02:41:21;1.50;;;1.50;;
10469;SDS011;5282;47.052;15.458;2023-08-06T02:43:48;1.73;;;1.20;;
10469;SDS011;5282;47.052;15.458;2023-08-06T02:46:16;1.40;;;1.40;;
10469;SDS011;5282;47.052;15.458;2023-08-06T02:48:43;1.67;;;1.67;;
10469;SDS011;5282;47.052;15.458;2023-08-06T02:51:10;1.30;;;1.30;;
10469;SDS011;5282;47.052;15.458;2023-08-06T02:53:37;1.53;;;1.53;;
10469;SDS011;5282;47.052;15.458;2023-08-06T02:56:04;1.63;;;1.63;;
10469;SDS011;5282;47.052;15.458;2023-08-06T02:58:30;1.40;;;1.40;;
10469;SDS011;5282;47.052;15.458;2023-08-06T03:01:01;1.47;;;1.47;;
10469;SDS011;5282;47.052;15.458;2023-08-06T03:03:30;1.80;;;1.80;;
10469;SDS011;5282;47.052;15.458;2023-08-06T03:06:00;1.87;;;1.87;;
10469;SDS011;5282;47.052;15.458;2023-08-06T03:08:27;1.80;;;1.80;;
10469;SDS011;5282;47.052;15.458;2023-08-06T03:10:57;1.47;;;1.47;;
10469;SDS011;5282;47.052;15.458;2023-08-06T03:13:24;1.87;;;1.87;;
10469;SDS011;5282;47.052;15.458;2023-08-06T03:15:51;1.73;;;1.73;;
10469;SDS011;5282;47.052;15.458;2023-08-06T03:18:19;1.87;;;1.87;;
10469;SDS011;5282;47.052;15.458;2023-08-06T03:20:47;1.80;;;1.80;;
10469;SDS011;5282;47.052;15.458;2023-08-06T03:23:14;1.70;;;1.70;;
10469;SDS011;5282;47.052;15.458;2023-08-06T03:25:41;1.70;;;1.70;;
10469;SDS011;5282;47.052;15.458;2023-08-06T03:28:08;1.70;;;1.70;;
10469;SDS011;5282;47.052;15.458;2023-08-06T03:30:35;1.73;;;1.73;;
10469;SDS011;5282;47.052;15.458;2023-08-06T03:33:02;1.53;;;1.53;;
10469;SDS011;5282;47.052;15.458;2023-08-06T03:35:29;1.80;;;1.80;;
10469;SDS011;5282;47.052;15.458;2023-08-06T03:37:57;1.83;;;1.73;;
10469;SDS011;5282;47.052;15.458;2023-08-06T03:40:24;1.80;;;1.80;;
10469;SDS011;5282;47.052;15.458;2023-08-06T03:42:50;1.73;;;1.73;;
10469;SDS011;5282;47.052;15.458;2023-08-06T03:45:19;1.83;;;1.83;;
10469;SDS011;5282;47.052;15.458;2023-08-06T03:47:46;1.80;;;1.80;;
10469;SDS011;5282;47.052;15.458;2023-08-06T03:50:13;1.60;;;1.57;;
10469;SDS011;5282;47.052;15.458;2023-08-06T03:52:40;1.97;;;1.90;;
10469;SDS011;5282;47.052;15.458;2023-08-06T03:55:08;1.80;;;1.70;;
10469;SDS011;5282;47.052;15.458;2023-08-06T03:57:35;1.90;;;1.90;;
10469;SDS011;5282;47.052;15.458;2023-08-06T04:00:02;1.80;;;1.80;;
10469;SDS011;5282;47.052;15.458;2023-08-06T04:02:32;1.90;;;1.80;;
10469;SDS011;5282;47.052;15.458;2023-08-06T04:04:59;2.10;;;2.10;;
10469;SDS011;5282;47.052;15.458;2023-08-06T04:07:27;1.80;;;1.80;;
10469;SDS011;5282;47.052;15.458;2023-08-06T04:09:54;1.93;;;1.93;;
10469;SDS011;5282;47.052;15.458;2023-08-06T04:12:23;2.10;;;2.10;;
10469;SDS011;5282;47.052;15.458;2023-08-06T04:14:50;2.27;;;2.27;;
10469;SDS011;5282;47.052;15.458;2023-08-06T04:17:18;2.57;;;2.47;;
10469;SDS011;5282;47.052;15.458;2023-08-06T04:19:47;2.67;;;2.47;;
10469;SDS011;5282;47.052;15.458;2023-08-06T04:22:15;3.23;;;2.93;;
10469;SDS011;5282;47.052;15.458;2023-08-06T04:24:43;3.13;;;3.03;;
10469;SDS011;5282;47.052;15.458;2023-08-06T04:27:11;3.20;;;3.10;;
10469;SDS011;5282;47.052;15.458;2023-08-06T04:29:39;2.53;;;2.50;;
10469;SDS011;5282;47.052;15.458;2023-08-06T04:32:07;3.20;;;3.00;;
10469;SDS011;5282;47.052;15.458;2023-08-06T04:34:36;3.10;;;3.00;;
10469;SDS011;5282;47.052;15.458;2023-08-06T04:37:03;3.27;;;3.17;;
10469;SDS011;5282;47.052;15.458;2023-08-06T04:39:31;3.57;;;3.47;;
10469;SDS011;5282;47.052;15.458;2023-08-06T04:41:57;3.53;;;3.43;;
10469;SDS011;5282;47.052;15.458;2023-08-06T04:44:24;3.80;;;3.70;;
10469;SDS011;5282;47.052;15.458;2023-08-06T04:46:53;3.67;;;3.47;;
10469;SDS011;5282;47.052;15.458;2023-08-06T04:49:20;4.20;;;4.10;;
10469;SDS011;5282;47.052;15.458;2023-08-06T04:51:49;3.60;;;3.50;;
10469;SDS011;5282;47.052;15.458;2023-08-06T04:54:16;3.40;;;3.30;;
10469;SDS011;5282;47.052;15.458;2023-08-06T04:56:43;3.37;;;3.27;;
10469;SDS011;5282;47.052;15.458;2023-08-06T04:59:09;3.57;;;3.37;;
10469;SDS011;5282;47.052;15.458;2023-08-06T05:01:36;2.90;;;2.80;;
10469;SDS011;5282;47.052;15.458;2023-08-06T05:04:04;3.17;;;2.97;;
10469;SDS011;5282;47.052;15.458;2023-08-06T05:06:31;2.70;;;2.60;;
10469;SDS011;5282;47.052;15.458;2023-08-06T05:09:03;2.90;;;2.80;;
10469;SDS011;5282;47.052;15.458;2023-08-06T05:11:30;3.27;;;2.73;;
10469;SDS011;5282;47.052;15.458;2023-08-06T05:13:57;2.90;;;2.80;;
10469;SDS011;5282;47.052;15.458;2023-08-06T05:16:23;3.00;;;2.90;;
10469;SDS011;5282;47.052;15.458;2023-08-06T05:18:50;2.80;;;2.70;;
10469;SDS011;5282;47.052;15.458;2023-08-06T05:21:19;3.10;;;2.90;;
10469;SDS011;5282;47.052;15.458;2023-08-06T05:23:47;3.37;;;3.17;;
10469;SDS011;5282;47.052;15.458;2023-08-06T05:26:14;3.50;;;3.40;;
10469;SDS011;5282;47.052;15.458;2023-08-06T05:28:43;4.43;;;4.13;;
10469;SDS011;5282;47.052;15.458;2023-08-06T05:31:10;3.40;;;3.30;;
10469;SDS011;5282;47.052;15.458;2023-08-06T05:33:37;3.30;;;3.20;;
10469;SDS011;5282;47.052;15.458;2023-08-06T05:36:04;3.10;;;3.00;;
10469;SDS011;5282;47.052;15.458;2023-08-06T05:38:35;3.00;;;2.90;;
10469;SDS011;5282;47.052;15.458;2023-08-06T05:41:02;3.03;;;2.93;;
10469;SDS011;5282;47.052;15.458;2023-08-06T05:43:29;3.27;;;3.17;;
10469;SDS011;5282;47.052;15.458;2023-08-06T05:45:55;3.10;;;3.00;;
10469;SDS011;5282;47.052;15.458;2023-08-06T05:48:25;2.90;;;2.80;;
10469;SDS011;5282;47.052;15.458;2023-08-06T05:50:53;3.00;;;2.87;;
10469;SDS011;5282;47.052;15.458;2023-08-06T05:53:20;3.13;;;3.03;;
10469;SDS011;5282;47.052;15.458;2023-08-06T05:55:48;2.80;;;2.60;;
10469;SDS011;5282;47.052;15.458;2023-08-06T05:58:15;2.40;;;2.20;;
10469;SDS011;5282;47.052;15.458;2023-08-06T06:00:42;2.30;;;2.30;;
10469;SDS011;5282;47.052;15.458;2023-08-06T06:03:08;1.73;;;1.73;;
10469;SDS011;5282;47.052;15.458;2023-08-06T06:05:37;1.73;;;1.73;;
10469;SDS011;5282;47.052;15.458;2023-08-06T06:08:04;1.70;;;1.70;;
10469;SDS011;5282;47.052;15.458;2023-08-06T06:10:31;2.00;;;2.00;;
10469;SDS011;5282;47.052;15.458;2023-08-06T06:12:59;1.70;;;1.70;;
10469;SDS011;5282;47.052;15.458;2023-08-06T06:15:26;1.90;;;1.90;;
10469;SDS011;5282;47.052;15.458;2023-08-06T06:17:53;1.97;;;1.87;;
10469;SDS011;5282;47.052;15.458;2023-08-06T06:20:19;1.80;;;1.80;;
10469;SDS011;5282;47.052;15.458;2023-08-06T06:22:46;1.87;;;1.87;;
10469;SDS011;5282;47.052;15.458;2023-08-06T06:25:13;1.80;;;1.80;;
10469;SDS011;5282;47.052;15.458;2023-08-06T06:27:40;1.80;;;1.80;;
10469;SDS011;5282;47.052;15.458;2023-08-06T06:30:09;1.80;;;1.80;;
10469;SDS011;5282;47.052;15.458;2023-08-06T06:32:38;1.60;;;1.60;;
10469;SDS011;5282;47.052;15.458;2023-08-06T06:35:05;1.67;;;1.67;;
10469;SDS011;5282;47.052;15.458;2023-08-06T06:37:32;1.60;;;1.60;;
10469;SDS011;5282;47.052;15.458;2023-08-06T06:39:59;1.90;;;1.90;;
10469;SDS011;5282;47.052;15.458;2023-08-06T06:42:26;2.03;;;1.90;;
10469;SDS011;5282;47.052;15.458;2023-08-06T06:44:55;1.60;;;1.57;;
10469;SDS011;5282;47.052;15.458;2023-08-06T06:47:26;1.90;;;1.90;;
10469;SDS011;5282;47.052;15.458;2023-08-06T06:49:52;1.60;;;1.60;;
10469;SDS011;5282;47.052;15.458;2023-08-06T06:52:19;1.60;;;1.60;;
10469;SDS011;5282;47.052;15.458;2023-08-06T06:54:47;1.90;;;1.80;;
10469;SDS011;5282;47.052;15.458;2023-08-06T06:57:13;2.40;;;2.33;;
10469;SDS011;5282;47.052;15.458;2023-08-06T06:59:40;1.87;;;1.87;;
10469;SDS011;5282;47.052;15.458;2023-08-06T07:02:07;2.00;;;2.00;;
10469;SDS011;5282;47.052;15.458;2023-08-06T07:04:35;1.90;;;1.90;;
10469;SDS011;5282;47.052;15.458;2023-08-06T07:07:02;2.00;;;1.90;;
10469;SDS011;5282;47.052;15.458;2023-08-06T07:09:29;2.10;;;2.00;;
10469;SDS011;5282;47.052;15.458;2023-08-06T07:11:57;1.90;;;1.80;;
10469;SDS011;5282;47.052;15.458;2023-08-06T07:14:24;1.90;;;1.90;;
10469;SDS011;5282;47.052;15.458;2023-08-06T07:16:52;1.77;;;1.77;;
10469;SDS011;5282;47.052;15.458;2023-08-06T07:19:21;1.40;;;1.40;;
10469;SDS011;5282;47.052;15.458;2023-08-06T07:21:49;1.53;;;1.53;;
10469;SDS011;5282;47.052;15.458;2023-08-06T07:24:16;1.50;;;1.50;;
10469;SDS011;5282;47.052;15.458;2023-08-06T07:26:43;1.57;;;1.57;;
10469;SDS011;5282;47.052;15.458;2023-08-06T07:29:10;1.60;;;1.50;;
10469;SDS011;5282;47.052;15.458;2023-08-06T07:31:37;1.43;;;1.43;;
10469;SDS011;5282;47.052;15.458;2023-08-06T07:34:04;1.20;;;1.20;;
10469;SDS011;5282;47.052;15.458;2023-08-06T07:36:31;1.50;;;1.47;;
10469;SDS011;5282;47.052;15.458;2023-08-06T07:38:59;1.40;;;1.30;;
10469;SDS011;5282;47.052;15.458;2023-08-06T07:41:26;1.30;;;1.30;;
10469;SDS011;5282;47.052;15.458;2023-08-06T07:43:53;1.60;;;1.60;;
10469;SDS011;5282;47.052;15.458;2023-08-06T07:46:20;1.30;;;1.30;;
10469;SDS011;5282;47.052;15.458;2023-08-06T07:48:47;1.10;;;1.10;;
10469;SDS011;5282;47.052;15.458;2023-08-06T07:51:14;1.27;;;1.17;;
10469;SDS011;5282;47.052;15.458;2023-08-06T07:53:42;1.40;;;1.40;;
10469;SDS011;5282;47.052;15.458;2023-08-06T07:56:11;1.30;;;1.30;;
10469;SDS011;5282;47.052;15.458;2023-08-06T07:58:38;0.97;;;0.97;;
10469;SDS011;5282;47.052;15.458;2023-08-06T08:01:05;1.47;;;1.37;;
10469;SDS011;5282;47.052;15.458;2023-08-06T08:03:33;1.10;;;1.10;;
10469;SDS011;5282;47.052;15.458;2023-08-06T08:05:59;1.20;;;1.10;;
10469;SDS011;5282;47.052;15.458;2023-08-06T08:08:26;1.00;;;1.00;;
10469;SDS011;5282;47.052;15.458;2023-08-06T08:10:53;0.90;;;0.90;;
10469;SDS011;5282;47.052;15.458;2023-08-06T08:13:22;0.80;;;0.80;;
10469;SDS011;5282;47.052;15.458;2023-08-06T08:15:49;0.93;;;0.93;;
10469;SDS011;5282;47.052;15.458;2023-08-06T08:18:16;1.10;;;1.10;;
10469;SDS011;5282;47.052;15.458;2023-08-06T08:20:43;1.13;;;1.13;;
10469;SDS011;5282;47.052;15.458;2023-08-06T08:23:10;1.10;;;1.10;;
10469;SDS011;5282;47.052;15.458;2023-08-06T08:25:37;1.20;;;1.20;;
10469;SDS011;5282;47.052;15.458;2023-08-06T08:28:04;1.47;;;1.20;;
10469;SDS011;5282;47.052;15.458;2023-08-06T08:30:32;1.40;;;1.40;;
10469;SDS011;5282;47.052;15.458;2023-08-06T08:32:59;1.40;;;1.40;;
10469;SDS011;5282;47.052;15.458;2023-08-06T08:35:26;1.30;;;1.30;;
10469;SDS011;5282;47.052;15.458;2023-08-06T08:37:53;1.03;;;1.03;;
10469;SDS011;5282;47.052;15.458;2023-08-06T08:40:22;1.13;;;1.13;;
10469;SDS011;5282;47.052;15.458;2023-08-06T08:42:56;1.17;;;1.17;;
10469;SDS011;5282;47.052;15.458;2023-08-06T08:45:24;1.57;;;1.47;;
10469;SDS011;5282;47.052;15.458;2023-08-06T08:47:56;1.77;;;1.67;;
10469;SDS011;5282;47.052;15.458;2023-08-06T08:50:23;1.47;;;1.47;;
10469;SDS011;5282;47.052;15.458;2023-08-06T08:52:50;1.37;;;1.27;;
10469;SDS011;5282;47.052;15.458;2023-08-06T08:55:18;1.63;;;1.63;;
10469;SDS011;5282;47.052;15.458;2023-08-06T08:57:48;1.60;;;1.30;;
10469;SDS011;5282;47.052;15.458;2023-08-06T09:00:15;1.70;;;1.37;;
10469;SDS011;5282;47.052;15.458;2023-08-06T09:02:42;1.50;;;1.50;;
10469;SDS011;5282;47.052;15.458;2023-08-06T09:05:12;1.67;;;1.40;;
10469;SDS011;5282;47.052;15.458;2023-08-06T09:07:41;1.50;;;1.50;;
10469;SDS011;5282;47.052;15.458;2023-08-06T09:10:10;1.70;;;1.60;;
10469;SDS011;5282;47.052;15.458;2023-08-06T09:12:39;1.20;;;1.20;;
10469;SDS011;5282;47.052;15.458;2023-08-06T09:15:06;1.43;;;1.43;;
10469;SDS011;5282;47.052;15.458;2023-08-06T09:17:34;1.63;;;1.63;;
10469;SDS011;5282;47.052;15.458;2023-08-06T09:20:08;1.50;;;1.50;;
10469;SDS011;5282;47.052;15.458;2023-08-06T09:22:38;1.60;;;1.60;;
10469;SDS011;5282;47.052;15.458;2023-08-06T09:25:05;1.43;;;1.43;;
10469;SDS011;5282;47.052;15.458;2023-08-06T09:27:35;1.60;;;1.60;;
10469;SDS011;5282;47.052;15.458;2023-08-06T09:30:03;1.50;;;1.50;;
10469;SDS011;5282;47.052;15.458;2023-08-06T09:32:44;1.43;;;1.43;;
10469;SDS011;5282;47.052;15.458;2023-08-06T09:35:16;1.80;;;1.80;;
10469;SDS011;5282;47.052;15.458;2023-08-06T09:37:44;1.60;;;1.60;;
10469;SDS011;5282;47.052;15.458;2023-08-06T09:42:54;1.70;;;1.70;;
10469;SDS011;5282;47.052;15.458;2023-08-06T09:45:23;1.80;;;1.80;;
10469;SDS011;5282;47.052;15.458;2023-08-06T09:47:55;1.50;;;1.50;;
10469;SDS011;5282;47.052;15.458;2023-08-06T09:50:22;1.60;;;1.60;;
10469;SDS011;5282;47.052;15.458;2023-08-06T09:52:50;1.97;;;1.87;;
10469;SDS011;5282;47.052;15.458;2023-08-06T09:55:19;1.70;;;1.70;;
10469;SDS011;5282;47.052;15.458;2023-08-06T09:57:46;1.80;;;1.80;;
10469;SDS011;5282;47.052;15.458;2023-08-06T10:00:13;1.90;;;1.90;;
10469;SDS011;5282;47.052;15.458;2023-08-06T10:02:41;1.63;;;1.63;;
10469;SDS011;5282;47.052;15.458;2023-08-06T10:05:08;1.80;;;1.80;;
10469;SDS011;5282;47.052;15.458;2023-08-06T10:07:35;1.50;;;1.40;;
10469;SDS011;5282;47.052;15.458;2023-08-06T10:10:06;1.73;;;1.63;;
10469;SDS011;5282;47.052;15.458;2023-08-06T10:12:34;2.70;;;1.90;;
10469;SDS011;5282;47.052;15.458;2023-08-06T10:15:06;1.60;;;1.47;;
10469;SDS011;5282;47.052;15.458;2023-08-06T10:17:38;1.50;;;1.50;;
10469;SDS011;5282;47.052;15.458;2023-08-06T10:20:09;1.50;;;1.50;;
10469;SDS011;5282;47.052;15.458;2023-08-06T10:22:36;1.70;;;1.60;;
10469;SDS011;5282;47.052;15.458;2023-08-06T10:25:10;1.30;;;1.30;;
10469;SDS011;5282;47.052;15.458;2023-08-06T10:27:52;1.77;;;1.77;;
10469;SDS011;5282;47.052;15.458;2023-08-06T10:30:23;1.43;;;1.43;;
10469;SDS011;5282;47.052;15.458;2023-08-06T10:32:52;1.20;;;1.20;;
10469;SDS011;5282;47.052;15.458;2023-08-06T10:35:33;1.20;;;1.20;;
10469;SDS011;5282;47.052;15.458;2023-08-06T10:38:05;1.20;;;1.20;;
10469;SDS011;5282;47.052;15.458;2023-08-06T10:40:35;1.00;;;1.00;;
10469;SDS011;5282;47.052;15.458;2023-08-06T10:43:03;1.30;;;1.30;;
10469;SDS011;5282;47.052;15.458;2023-08-06T10:45:34;1.00;;;1.00;;
10469;SDS011;5282;47.052;15.458;2023-08-06T10:48:01;0.90;;;0.90;;
10469;SDS011;5282;47.052;15.458;2023-08-06T10:50:30;0.80;;;0.80;;
10469;SDS011;5282;47.052;15.458;2023-08-06T10:52:57;0.93;;;0.93;;
10469;SDS011;5282;47.052;15.458;2023-08-06T10:55:31;0.83;;;0.83;;
10469;SDS011;5282;47.052;15.458;2023-08-06T10:58:00;0.90;;;0.90;;
10469;SDS011;5282;47.052;15.458;2023-08-06T11:00:27;1.00;;;1.00;;
10469;SDS011;5282;47.052;15.458;2023-08-06T11:02:54;0.93;;;0.83;;
10469;SDS011;5282;47.052;15.458;2023-08-06T11:05:21;1.10;;;1.10;;
10469;SDS011;5282;47.052;15.458;2023-08-06T11:07:48;1.47;;;1.10;;
10469;SDS011;5282;47.052;15.458;2023-08-06T11:10:16;1.00;;;1.00;;
10469;SDS011;5282;47.052;15.458;2023-08-06T11:12:43;0.70;;;0.70;;
10469;SDS011;5282;47.052;15.458;2023-08-06T11:15:12;0.80;;;0.80;;
10469;SDS011;5282;47.052;15.458;2023-08-06T11:17:40;0.70;;;0.70;;
10469;SDS011;5282;47.052;15.458;2023-08-06T11:20:08;0.90;;;0.90;;
10469;SDS011;5282;47.052;15.458;2023-08-06T11:22:36;0.70;;;0.70;;
10469;SDS011;5282;47.052;15.458;2023-08-06T11:25:04;0.73;;;0.73;;
10469;SDS011;5282;47.052;15.458;2023-08-06T11:27:32;0.80;;;0.80;;
10469;SDS011;5282;47.052;15.458;2023-08-06T11:29:59;1.00;;;1.00;;
10469;SDS011;5282;47.052;15.458;2023-08-06T11:32:28;0.93;;;0.93;;
10469;SDS011;5282;47.052;15.458;2023-08-06T11:34:55;0.80;;;0.80;;
10469;SDS011;5282;47.052;15.458;2023-08-06T11:37:22;0.80;;;0.80;;
10469;SDS011;5282;47.052;15.458;2023-08-06T11:39:50;1.00;;;1.00;;
10469;SDS011;5282;47.052;15.458;2023-08-06T11:42:17;0.77;;;0.70;;
10469;SDS011;5282;47.052;15.458;2023-08-06T11:44:44;0.90;;;0.90;;
10469;SDS011;5282;47.052;15.458;2023-08-06T11:47:12;0.80;;;0.80;;
10469;SDS011;5282;47.052;15.458;2023-08-06T11:49:45;0.90;;;0.90;;
10469;SDS011;5282;47.052;15.458;2023-08-06T11:52:14;0.67;;;0.67;;
10469;SDS011;5282;47.052;15.458;2023-08-06T11:54:44;0.80;;;0.80;;
10469;SDS011;5282;47.052;15.458;2023-08-06T11:57:12;0.80;;;0.80;;
10469;SDS011;5282;47.052;15.458;2023-08-06T11:59:39;0.70;;;0.70;;
10469;SDS011;5282;47.052;15.458;2023-08-06T12:02:10;0.77;;;0.77;;
10469;SDS011;5282;47.052;15.458;2023-08-06T12:07:35;0.77;;;0.77;;
10469;SDS011;5282;47.052;15.458;2023-08-06T12:10:04;0.40;;;0.40;;
10469;SDS011;5282;47.052;15.458;2023-08-06T12:12:33;0.70;;;0.70;;
10469;SDS011;5282;47.052;15.458;2023-08-06T12:15:01;0.70;;;0.70;;
10469;SDS011;5282;47.052;15.458;2023-08-06T12:17:28;0.70;;;0.70;;
10469;SDS011;5282;47.052;15.458;2023-08-06T12:19:55;0.60;;;0.60;;
10469;SDS011;5282;47.052;15.458;2023-08-06T12:22:26;0.65;;;0.65;;
10469;SDS011;5282;47.052;15.458;2023-08-06T12:24:53;0.70;;;0.70;;
10469;SDS011;5282;47.052;15.458;2023-08-06T12:27:20;0.73;;;0.73;;
10469;SDS011;5282;47.052;15.458;2023-08-06T12:29:47;0.63;;;0.63;;
10469;SDS011;5282;47.052;15.458;2023-08-06T12:32:15;0.63;;;0.63;;
10469;SDS011;5282;47.052;15.458;2023-08-06T12:34:42;0.50;;;0.50;;
10469;SDS011;5282;47.052;15.458;2023-08-06T12:37:09;0.60;;;0.60;;
10469;SDS011;5282;47.052;15.458;2023-08-06T12:39:38;0.70;;;0.70;;
10469;SDS011;5282;47.052;15.458;2023-08-06T12:42:05;0.60;;;0.60;;
10469;SDS011;5282;47.052;15.458;2023-08-06T12:44:32;0.80;;;0.80;;
10469;SDS011;5282;47.052;15.458;2023-08-06T12:46:59;0.80;;;0.80;;
10469;SDS011;5282;47.052;15.458;2023-08-06T12:49:26;0.60;;;0.60;;
10469;SDS011;5282;47.052;15.458;2023-08-06T12:51:54;0.70;;;0.70;;
10469;SDS011;5282;47.052;15.458;2023-08-06T12:54:22;0.60;;;0.60;;
10469;SDS011;5282;47.052;15.458;2023-08-06T12:56:50;0.40;;;0.40;;
10469;SDS011;5282;47.052;15.458;2023-08-06T12:59:17;0.50;;;0.50;;
10469;SDS011;5282;47.052;15.458;2023-08-06T13:01:46;0.30;;;0.30;;
10469;SDS011;5282;47.052;15.458;2023-08-06T13:04:15;0.40;;;0.40;;
10469;SDS011;5282;47.052;15.458;2023-08-06T13:06:44;0.30;;;0.30;;
10469;SDS011;5282;47.052;15.458;2023-08-06T13:09:12;0.67;;;0.60;;
10469;SDS011;5282;47.052;15.458;2023-08-06T13:11:41;0.50;;;0.50;;
10469;SDS011;5282;47.052;15.458;2023-08-06T13:14:13;0.53;;;0.53;;
10469;SDS011;5282;47.052;15.458;2023-08-06T13:16:42;0.38;;;0.38;;
10469;SDS011;5282;47.052;15.458;2023-08-06T13:19:12;0.40;;;0.40;;
10469;SDS011;5282;47.052;15.458;2023-08-06T13:24:35;0.50;;;0.50;;
10469;SDS011;5282;47.052;15.458;2023-08-06T13:27:04;0.45;;;0.45;;
10469;SDS011;5282;47.052;15.458;2023-08-06T13:29:34;0.50;;;0.50;;
10469;SDS011;5282;47.052;15.458;2023-08-06T13:32:03;0.35;;;0.35;;
10469;SDS011;5282;47.052;15.458;2023-08-06T13:34:32;0.40;;;0.40;;
10469;SDS011;5282;47.052;15.458;2023-08-06T13:37:00;0.50;;;0.50;;
10469;SDS011;5282;47.052;15.458;2023-08-06T13:39:30;0.30;;;0.30;;
10469;SDS011;5282;47.052;15.458;2023-08-06T13:41:58;0.43;;;0.43;;
10469;SDS011;5282;47.052;15.458;2023-08-06T13:44:26;0.47;;;0.40;;
10469;SDS011;5282;47.052;15.458;2023-08-06T13:46:56;0.50;;;0.50;;
10469;SDS011;5282;47.052;15.458;2023-08-06T13:49:25;0.38;;;0.38;;
10469;SDS011;5282;47.052;15.458;2023-08-06T13:51:53;0.75;;;0.50;;
10469;SDS011;5282;47.052;15.458;2023-08-06T13:54:23;0.60;;;0.60;;
10469;SDS011;5282;47.052;15.458;2023-08-06T13:56:51;0.60;;;0.60;;
10469;SDS011;5282;47.052;15.458;2023-08-06T13:59:20;0.50;;;0.50;;
10469;SDS011;5282;47.052;15.458;2023-08-06T14:01:50;0.50;;;0.50;;
10469;SDS011;5282;47.052;15.458;2023-08-06T14:04:20;0.50;;;0.50;;
10469;SDS011;5282;47.052;15.458;2023-08-06T14:06:49;0.40;;;0.40;;
10469;SDS011;5282;47.052;15.458;2023-08-06T14:09:17;0.50;;;0.50;;
10469;SDS011;5282;47.052;15.458;2023-08-06T14:11:46;0.50;;;0.50;;
10469;SDS011;5282;47.052;15.458;2023-08-06T14:14:15;0.60;;;0.60;;
10469;SDS011;5282;47.052;15.458;2023-08-06T14:16:44;0.40;;;0.40;;
10469;SDS011;5282;47.052;15.458;2023-08-06T14:19:12;0.40;;;0.40;;
10469;SDS011;5282;47.052;15.458;2023-08-06T14:21:42;0.70;;;0.70;;
10469;SDS011;5282;47.052;15.458;2023-08-06T14:24:11;0.60;;;0.60;;
10469;SDS011;5282;47.052;15.458;2023-08-06T14:26:40;0.50;;;0.50;;
10469;SDS011;5282;47.052;15.458;2023-08-06T14:29:08;0.40;;;0.40;;
10469;SDS011;5282;47.052;15.458;2023-08-06T14:31:39;0.52;;;0.52;;
10469;SDS011;5282;47.052;15.458;2023-08-06T14:34:10;0.40;;;0.40;;
10469;SDS011;5282;47.052;15.458;2023-08-06T14:36:39;0.50;;;0.50;;
10469;SDS011;5282;47.052;15.458;2023-08-06T14:39:09;0.40;;;0.40;;
10469;SDS011;5282;47.052;15.458;2023-08-06T14:41:38;0.45;;;0.45;;
10469;SDS011;5282;47.052;15.458;2023-08-06T14:44:07;0.43;;;0.43;;
10469;SDS011;5282;47.052;15.458;2023-08-06T14:46:35;0.60;;;0.60;;
10469;SDS011;5282;47.052;15.458;2023-08-06T14:49:04;0.60;;;0.60;;
10469;SDS011;5282;47.052;15.458;2023-08-06T14:51:32;0.40;;;0.40;;
10469;SDS011;5282;47.052;15.458;2023-08-06T14:54:01;0.43;;;0.43;;
10469;SDS011;5282;47.052;15.458;2023-08-06T14:56:31;0.93;;;0.38;;
10469;SDS011;5282;47.052;15.458;2023-08-06T14:59:00;0.40;;;0.40;;
10469;SDS011;5282;47.052;15.458;2023-08-06T15:01:31;0.40;;;0.40;;